Time;durP1;ratioP1;P1;durP2;ratioP2;P2;SDS_P1;SDS_P2;PMS_P1;PMS_P2;Temp;Humidity;BMP_temperature;BMP_pressure;BME280_temperature;BME280_humidity;BME280_pressure;Samples;Min_cycle;Max_cycle;Signal;HPM_P1;HPM_P2
2022/12/09 00:01:47;;;;;;;16.13;9.38;;;4.80;86.70;;;;;;5133975;27;20039;-49
2022/12/09 00:04:14;;;;;;;15.65;9.20;;;4.80;86.40;;;;;;5134247;27;20070;-58
2022/12/09 00:06:39;;;;;;;13.55;8.60;;;4.80;86.30;;;;;;5134231;27;20035;-57
2022/12/09 00:09:05;;;;;;;13.85;8.88;;;4.70;86.10;;;;;;5130292;27;20031;-58
2022/12/09 00:11:31;;;;;;;12.23;8.65;;;4.70;86.20;;;;;;5133163;27;20066;-58
2022/12/09 00:13:58;;;;;;;13.05;8.07;;;4.60;86.50;;;;;;5133164;27;20050;-62
2022/12/09 00:16:24;;;;;;;9.82;6.85;;;4.60;86.90;;;;;;5130716;27;20106;-61
2022/12/09 00:18:51;;;;;;;12.80;7.65;;;4.60;87.30;;;;;;5132343;27;20039;-54
2022/12/09 00:21:24;;;;;;;15.65;8.88;;;4.60;87.70;;;;;;5133327;27;20335;-56
2022/12/09 00:23:51;;;;;;;11.90;7.68;;;4.70;87.70;;;;;;5124391;27;20040;-47
2022/12/09 00:26:20;;;;;;;9.75;7.10;;;4.70;87.50;;;;;;5133317;27;20026;-49
2022/12/09 00:28:48;;;;;;;12.13;7.45;;;4.70;87.80;;;;;;5132371;27;20027;-56
2022/12/09 00:31:23;;;;;;;13.48;8.88;;;4.80;87.90;;;;;;5126840;27;20027;-60
2022/12/09 00:33:54;;;;;;;13.10;7.80;;;4.80;87.80;;;;;;5130835;27;20114;-57
2022/12/09 00:36:21;;;;;;;11.00;7.68;;;4.80;87.60;;;;;;5132220;27;20019;-56
2022/12/09 00:38:47;;;;;;;12.68;7.07;;;4.90;87.80;;;;;;5132966;27;20617;-58
2022/12/09 00:41:14;;;;;;;10.63;7.30;;;4.90;87.70;;;;;;5126775;27;20024;-58
2022/12/09 00:43:43;;;;;;;11.00;6.75;;;4.90;87.50;;;;;;5120971;27;20031;-55
2022/12/09 00:46:10;;;;;;;10.80;6.82;;;4.90;87.30;;;;;;5132707;27;20052;-55
2022/12/09 00:48:37;;;;;;;12.55;7.10;;;4.90;87.20;;;;;;5121332;27;20389;-63
2022/12/09 00:51:04;;;;;;;14.65;8.82;;;5.00;87.30;;;;;;5129847;27;20058;-63
2022/12/09 00:53:31;;;;;;;15.63;9.07;;;5.00;87.30;;;;;;5133300;27;20069;-65
2022/12/09 00:55:57;;;;;;;11.43;7.05;;;5.00;87.10;;;;;;5132898;27;20529;-65
2022/12/09 00:58:23;;;;;;;15.55;8.52;;;5.00;86.80;;;;;;5133098;27;20487;-49
2022/12/09 01:00:54;;;;;;;11.98;7.47;;;5.00;86.80;;;;;;5132418;27;20031;-52
2022/12/09 01:03:21;;;;;;;12.30;7.75;;;5.00;86.70;;;;;;5126890;27;20040;-51
2022/12/09 01:05:47;;;;;;;13.07;7.95;;;5.00;87.50;;;;;;5130880;27;20043;-51
2022/12/09 01:08:13;;;;;;;11.75;6.65;;;5.00;86.90;;;;;;5132693;27;20492;-51
2022/12/09 01:10:41;;;;;;;13.50;8.82;;;5.00;86.90;;;;;;5126289;27;20367;-51
2022/12/09 01:13:07;;;;;;;15.70;9.40;;;5.00;86.90;;;;;;5130877;27;20027;-52
2022/12/09 01:15:33;;;;;;;13.90;9.80;;;5.00;86.40;;;;;;5131532;27;20027;-53
2022/12/09 01:17:59;;;;;;;14.63;9.35;;;5.00;86.20;;;;;;5131764;27;20073;-54
2022/12/09 01:20:25;;;;;;;15.90;9.10;;;5.00;86.10;;;;;;5130636;27;20058;-51
2022/12/09 01:22:50;;;;;;;16.15;9.93;;;5.00;86.10;;;;;;5131063;27;20467;-54
2022/12/09 01:25:16;;;;;;;12.85;8.45;;;5.00;86.20;;;;;;5132052;27;20027;-47
2022/12/09 01:27:42;;;;;;;14.98;9.32;;;4.90;86.10;;;;;;5132809;27;20027;-52
2022/12/09 01:30:10;;;;;;;17.13;10.85;;;4.90;86.40;;;;;;5131819;27;20031;-51
2022/12/09 01:32:36;;;;;;;14.63;9.60;;;4.90;86.60;;;;;;5119107;27;20207;-64
2022/12/09 01:35:03;;;;;;;12.32;8.27;;;4.90;86.80;;;;;;5132621;27;20031;-62
2022/12/09 01:37:31;;;;;;;15.95;10.23;;;4.90;87.10;;;;;;5123023;27;20402;-63
2022/12/09 01:39:56;;;;;;;15.93;9.80;;;5.00;87.10;;;;;;5130490;27;20491;-62
2022/12/09 01:42:24;;;;;;;15.13;10.43;;;5.00;86.80;;;;;;5111416;28;20027;-63
2022/12/09 01:45:21;;;;;;;17.15;10.85;;;5.00;86.70;;;;;;5127063;27;20083;-57
2022/12/09 01:48:12;;;;;;;15.95;10.43;;;4.90;86.50;;;;;;5133096;27;20031;-56
2022/12/09 01:50:40;;;;;;;;;;;4.90;86.70;;;;;;5128332;27;20038;-56
2022/12/09 01:53:06;;;;;;;16.83;9.35;;;4.90;86.60;;;;;;5130812;27;19908;-57
2022/12/09 01:55:33;;;;;;;20.00;11.35;;;5.00;87.10;;;;;;5132001;27;20117;-57
2022/12/09 01:57:59;;;;;;;15.20;9.43;;;5.00;87.20;;;;;;5132119;27;20158;-52
2022/12/09 02:00:24;;;;;;;15.32;9.02;;;5.00;87.40;;;;;;5130951;27;20512;-51
2022/12/09 02:02:53;;;;;;;19.27;10.20;;;5.00;87.40;;;;;;5131570;28;20031;-57
2022/12/09 02:05:20;;;;;;;16.13;8.88;;;5.00;87.50;;;;;;5131823;27;20054;-57
2022/12/09 02:07:46;;;;;;;11.77;7.55;;;5.00;87.50;;;;;;5130359;27;20031;-48
2022/12/09 02:10:14;;;;;;;15.55;7.88;;;5.10;87.60;;;;;;5126992;28;20038;-54
2022/12/09 02:13:00;;;;;;;15.35;7.80;;;5.10;87.70;;;;;;5131481;28;20721;-64
2022/12/09 02:15:42;;;;;;;23.75;10.30;;;5.10;87.60;;;;;;5109418;28;20067;-66
2022/12/09 02:18:35;;;;;;;15.77;8.35;;;5.10;87.30;;;;;;5129686;28;20083;-67
2022/12/09 02:21:26;;;;;;;21.50;9.48;;;5.10;87.30;;;;;;5131474;27;20039;-64
2022/12/09 02:24:20;;;;;;;22.65;9.65;;;5.20;87.30;;;;;;5141567;27;20034;-66
2022/12/09 02:26:48;;;;;;;49.40;20.60;;;5.20;87.30;;;;;;5112706;27;20051;-66
2022/12/09 02:29:42;;;;;;;29.92;14.20;;;5.20;86.90;;;;;;5131490;28;20054;-51
2022/12/09 02:32:28;;;;;;;21.95;11.20;;;5.20;86.50;;;;;;5131609;28;20085;-48
2022/12/09 02:34:59;;;;;;;23.92;10.13;;;5.20;86.10;;;;;;5131472;27;20046;-50
2022/12/09 02:37:34;;;;;;;29.65;11.98;;;5.20;85.80;;;;;;5131987;28;20079;-51
2022/12/09 02:40:21;;;;;;;17.75;10.13;;;5.20;85.40;;;;;;5129807;28;20036;-51
2022/12/09 02:42:48;;;;;;;27.92;12.57;;;5.10;85.10;;;;;;5125487;28;20024;-53
2022/12/09 02:45:15;;;;;;;19.92;11.18;;;5.10;84.90;;;;;;5130877;28;20162;-49
2022/12/09 02:47:49;;;;;;;14.90;8.57;;;5.00;84.50;;;;;;5130733;28;20066;-52
2022/12/09 02:50:19;;;;;;;27.23;10.35;;;4.90;84.50;;;;;;5125850;28;20094;-49
2022/12/09 02:52:47;;;;;;;26.10;9.93;;;4.80;84.80;;;;;;5134492;27;20453;-49
2022/12/09 02:55:15;;;;;;;26.13;11.23;;;4.70;85.00;;;;;;5128752;27;20473;-47
2022/12/09 02:57:41;;;;;;;26.77;12.07;;;4.70;85.50;;;;;;5132204;27;20023;-51
2022/12/09 03:00:07;;;;;;;24.73;11.82;;;4.70;85.80;;;;;;5134536;27;20039;-49
2022/12/09 03:02:40;;;;;;;15.18;9.30;;;4.70;85.80;;;;;;5127116;27;20027;-52
2022/12/09 03:05:24;;;;;;;12.88;7.60;;;4.80;85.90;;;;;;5134878;27;20101;-52
2022/12/09 03:07:58;;;;;;;15.57;8.13;;;4.80;85.90;;;;;;5134244;27;20019;-53
2022/12/09 03:10:58;;;;;;;12.52;6.97;;;4.80;85.90;;;;;;5134340;27;20039;-49
2022/12/09 03:13:38;;;;;;;8.50;6.22;;;4.80;85.70;;;;;;5124193;27;20045;-49
2022/12/09 03:16:20;;;;;;;9.07;6.03;;;4.80;85.50;;;;;;5135195;27;20066;-49
2022/12/09 03:18:49;;;;;;;;;;;4.80;85.40;;;;;;5131953;27;20062;-55
2022/12/09 03:21:20;;;;;;;8.40;5.88;;;4.70;85.00;;;;;;5122007;27;20298;-47
2022/12/09 03:23:47;;;;;;;10.93;6.80;;;4.80;85.30;;;;;;5134972;27;20072;-51
2022/12/09 03:26:14;;;;;;;10.50;6.32;;;4.70;85.30;;;;;;5134366;27;20042;-49
2022/12/09 03:28:46;;;;;;;9.93;6.20;;;4.70;85.50;;;;;;5132902;27;20032;-50
2022/12/09 03:31:18;;;;;;;8.52;5.35;;;4.70;85.40;;;;;;5135480;27;20502;-49
2022/12/09 03:33:47;;;;;;;11.65;7.25;;;4.70;85.40;;;;;;5134570;27;20023;-63
2022/12/09 03:36:15;;;;;;;9.30;5.93;;;4.70;85.60;;;;;;5132841;27;20069;-63
2022/12/09 03:38:43;;;;;;;6.68;5.03;;;4.70;85.40;;;;;;5134036;27;20039;-59
2022/12/09 03:41:31;;;;;;;8.80;5.80;;;4.80;85.70;;;;;;5133339;27;20035;-59
2022/12/09 03:44:11;;;;;;;7.43;5.18;;;4.80;85.60;;;;;;5121284;27;20039;-55
2022/12/09 03:46:37;;;;;;;8.23;5.45;;;4.80;85.90;;;;;;5132181;27;20027;-55
2022/12/09 03:49:03;;;;;;;10.65;6.30;;;4.90;85.80;;;;;;5132060;27;20028;-56
2022/12/09 03:52:00;;;;;;;9.27;6.55;;;4.90;85.70;;;;;;5133758;27;20396;-56
2022/12/09 03:54:34;;;;;;;7.78;5.50;;;4.90;85.30;;;;;;5134148;27;20023;-57
2022/12/09 03:57:01;;;;;;;9.75;6.38;;;4.90;85.40;;;;;;5119912;27;20035;-57
2022/12/09 03:59:31;;;;;;;8.73;5.55;;;4.90;85.50;;;;;;5134318;27;20023;-56
2022/12/09 04:01:57;;;;;;;7.95;5.55;;;5.00;85.60;;;;;;5134049;27;20391;-57
2022/12/09 04:04:23;;;;;;;7.22;4.88;;;5.00;85.50;;;;;;5133458;27;20134;-56
2022/12/09 04:06:51;;;;;;;12.45;6.88;;;5.00;85.40;;;;;;5133629;27;20023;-55
2022/12/09 04:09:17;;;;;;;10.57;7.32;;;5.10;85.40;;;;;;5126520;27;20054;-57
2022/12/09 04:11:42;;;;;;;11.23;7.93;;;5.10;85.10;;;;;;5134046;27;20057;-56
2022/12/09 04:14:08;;;;;;;13.68;8.23;;;5.10;85.20;;;;;;5131860;27;20023;-56
2022/12/09 04:16:34;;;;;;;13.23;8.02;;;5.00;85.10;;;;;;5133851;27;20118;-55
2022/12/09 04:19:00;;;;;;;12.10;8.38;;;5.00;85.30;;;;;;5132304;27;20118;-56
2022/12/09 04:21:26;;;;;;;11.07;7.47;;;5.00;85.40;;;;;;5133938;27;20030;-56
2022/12/09 04:23:52;;;;;;;13.27;8.23;;;4.90;85.50;;;;;;5131530;27;20026;-58
2022/12/09 04:26:20;;;;;;;10.45;6.75;;;4.90;85.60;;;;;;5133816;27;20202;-57
2022/12/09 04:28:47;;;;;;;8.00;5.60;;;4.90;85.70;;;;;;5131550;27;20070;-66
2022/12/09 04:31:15;;;;;;;8.05;5.63;;;4.90;85.90;;;;;;5131784;27;20031;-66
2022/12/09 04:33:41;;;;;;;8.15;5.50;;;4.90;86.10;;;;;;5133898;27;20027;-66
2022/12/09 04:36:10;;;;;;;9.65;6.32;;;5.00;86.00;;;;;;5124711;27;20031;-66
2022/12/09 04:38:36;;;;;;;10.40;6.43;;;5.00;85.80;;;;;;5130889;27;20107;-50
2022/12/09 04:41:03;;;;;;;8.38;6.07;;;5.10;85.60;;;;;;5130865;27;20526;-50
2022/12/09 04:43:29;;;;;;;10.25;6.50;;;5.10;85.10;;;;;;5133966;27;20087;-49
2022/12/09 04:46:00;;;;;;;7.75;6.38;;;5.10;84.70;;;;;;5133092;27;20090;-52
2022/12/09 04:48:26;;;;;;;8.98;6.15;;;5.10;84.60;;;;;;5132155;27;20034;-59
2022/12/09 04:50:52;;;;;;;7.93;5.07;;;5.20;84.60;;;;;;5131196;27;20499;-58
2022/12/09 04:53:18;;;;;;;7.40;5.22;;;5.20;84.70;;;;;;5127803;27;20027;-59
2022/12/09 04:55:44;;;;;;;7.15;5.25;;;5.20;84.70;;;;;;5127699;27;20046;-59
2022/12/09 04:58:13;;;;;;;7.93;5.18;;;5.20;84.70;;;;;;5132713;27;20032;-60
2022/12/09 05:00:39;;;;;;;8.90;6.18;;;5.30;84.70;;;;;;5130203;27;20050;-58
2022/12/09 05:03:05;;;;;;;8.27;5.45;;;5.20;84.50;;;;;;5124261;27;20023;-59
2022/12/09 05:05:31;;;;;;;6.93;4.90;;;5.20;84.50;;;;;;5125556;27;20047;-57
2022/12/09 05:07:57;;;;;;;8.07;6.10;;;5.20;84.60;;;;;;5130382;27;20872;-59
2022/12/09 05:10:23;;;;;;;9.25;5.72;;;5.30;84.70;;;;;;5132205;27;20488;-59
2022/12/09 05:12:48;;;;;;;10.35;5.85;;;5.30;84.50;;;;;;5132225;27;20156;-59
2022/12/09 05:15:14;;;;;;;6.47;5.25;;;5.30;84.50;;;;;;5121833;27;20122;-59
2022/12/09 05:17:43;;;;;;;6.57;4.82;;;5.30;84.60;;;;;;5129140;27;20493;-58
2022/12/09 05:20:09;;;;;;;7.05;4.25;;;5.30;84.50;;;;;;5131625;27;20027;-58
2022/12/09 05:22:35;;;;;;;7.57;4.90;;;5.30;84.40;;;;;;5132528;27;20041;-59
2022/12/09 05:25:01;;;;;;;9.10;5.53;;;5.40;84.40;;;;;;5132481;27;20043;-60
2022/12/09 05:27:26;;;;;;;6.47;4.63;;;5.40;84.20;;;;;;5132348;27;20023;-59
2022/12/09 05:29:55;;;;;;;7.30;4.47;;;5.30;84.10;;;;;;5131391;27;20031;-59
2022/12/09 05:32:21;;;;;;;6.03;4.25;;;5.30;84.10;;;;;;5130841;27;20258;-60
2022/12/09 05:34:46;;;;;;;6.78;4.50;;;5.30;84.10;;;;;;5130965;27;20472;-58
2022/12/09 05:37:14;;;;;;;6.78;4.50;;;5.30;84.30;;;;;;5132638;27;20047;-58
2022/12/09 05:39:40;;;;;;;7.80;5.80;;;5.30;84.10;;;;;;5131176;27;20031;-58
2022/12/09 05:42:08;;;;;;;6.90;4.78;;;5.30;84.00;;;;;;5130421;27;20015;-57
2022/12/09 05:44:36;;;;;;;8.32;5.65;;;5.40;84.00;;;;;;5133026;27;20035;-62
2022/12/09 05:47:02;;;;;;;9.18;7.03;;;5.30;83.80;;;;;;5132454;27;20031;-61
2022/12/09 05:49:28;;;;;;;9.52;6.57;;;5.30;83.70;;;;;;5128505;27;20423;-51
2022/12/09 05:51:56;;;;;;;9.93;6.70;;;5.30;83.60;;;;;;5128746;27;20513;-52
2022/12/09 05:54:22;;;;;;;7.72;5.93;;;5.20;83.50;;;;;;5123289;27;20042;-67
2022/12/09 05:56:48;;;;;;;8.02;5.30;;;5.10;83.60;;;;;;5129724;27;20027;-63
2022/12/09 05:59:14;;;;;;;7.95;5.50;;;5.10;84.00;;;;;;5131178;27;20035;-66
2022/12/09 06:01:42;;;;;;;7.80;5.30;;;5.00;84.30;;;;;;5128864;27;20023;-67
2022/12/09 06:04:08;;;;;;;6.80;4.75;;;5.00;84.50;;;;;;5122586;27;20054;-67
2022/12/09 06:06:34;;;;;;;5.65;4.32;;;5.00;84.60;;;;;;5120589;28;20071;-65
2022/12/09 06:09:01;;;;;;;6.45;4.30;;;5.00;84.60;;;;;;5127380;28;20358;-67
2022/12/09 06:11:27;;;;;;;5.88;4.05;;;5.00;84.60;;;;;;5131094;28;20027;-68
2022/12/09 06:13:53;;;;;;;4.95;3.88;;;5.10;84.50;;;;;;5131710;28;20080;-67
2022/12/09 06:16:20;;;;;;;5.43;4.13;;;5.10;84.50;;;;;;5131151;27;20038;-64
2022/12/09 06:18:47;;;;;;;6.07;4.15;;;5.10;84.20;;;;;;5130987;28;20110;-65
2022/12/09 06:21:14;;;;;;;7.65;4.90;;;5.20;84.00;;;;;;5117644;27;20062;-68
2022/12/09 06:23:43;;;;;;;6.72;4.45;;;5.10;83.70;;;;;;5130521;27;20035;-57
2022/12/09 06:26:23;;;;;;;5.97;4.50;;;5.20;83.50;;;;;;5131033;27;20078;-55
2022/12/09 06:28:49;;;;;;;6.20;4.00;;;5.20;83.30;;;;;;5134476;27;20422;-57
2022/12/09 06:31:16;;;;;;;6.18;4.28;;;5.20;83.50;;;;;;5133613;27;20027;-56
2022/12/09 06:33:42;;;;;;;6.97;4.18;;;5.20;83.70;;;;;;5134394;27;20023;-56
2022/12/09 06:36:09;;;;;;;6.47;4.43;;;5.20;83.70;;;;;;5135516;27;20027;-51
2022/12/09 06:38:35;;;;;;;6.10;3.95;;;5.20;83.70;;;;;;5133096;27;20452;-56
2022/12/09 06:41:08;;;;;;;5.75;4.07;;;5.20;83.70;;;;;;5132829;27;20043;-53
2022/12/09 06:43:38;;;;;;;5.18;3.55;;;5.20;83.80;;;;;;5132764;27;20154;-53
2022/12/09 06:46:14;;;;;;;6.43;4.43;;;5.20;83.80;;;;;;5131096;27;20042;-56
2022/12/09 06:48:41;;;;;;;6.00;4.97;;;5.30;83.80;;;;;;5134731;27;20034;-54
2022/12/09 06:51:10;;;;;;;5.68;4.72;;;5.30;83.50;;;;;;5133482;27;20034;-57
2022/12/09 06:53:36;;;;;;;7.25;5.28;;;5.20;83.00;;;;;;5132443;27;20459;-52
2022/12/09 06:56:03;;;;;;;7.32;4.78;;;5.20;83.00;;;;;;5129501;27;20027;-57
2022/12/09 06:58:30;;;;;;;5.57;4.40;;;5.20;83.00;;;;;;5128547;27;20050;-51
2022/12/09 07:01:04;;;;;;;6.38;4.78;;;5.10;83.10;;;;;;5130548;27;20027;-50
2022/12/09 07:03:30;;;;;;;5.55;3.92;;;5.10;83.40;;;;;;5134002;27;20038;-54
2022/12/09 07:05:56;;;;;;;5.97;4.63;;;5.10;83.60;;;;;;5125375;27;20138;-56
2022/12/09 07:08:21;;;;;;;5.80;4.03;;;5.10;83.70;;;;;;5131047;27;20422;-52
2022/12/09 07:10:47;;;;;;;7.05;4.63;;;5.20;83.90;;;;;;5135253;27;20023;-53
2022/12/09 07:13:13;;;;;;;5.40;3.75;;;5.20;84.00;;;;;;5126638;27;20401;-50
2022/12/09 07:15:38;;;;;;;5.32;3.90;;;5.20;84.00;;;;;;5131333;27;20038;-55
2022/12/09 07:18:05;;;;;;;6.57;4.78;;;5.20;84.00;;;;;;5121977;27;21432;-55
2022/12/09 07:20:31;;;;;;;6.35;4.18;;;5.20;84.00;;;;;;5115495;27;20042;-53
2022/12/09 07:22:57;;;;;;;4.80;4.00;;;5.30;84.10;;;;;;5102848;27;20027;-57
2022/12/09 07:25:22;;;;;;;6.47;4.20;;;5.30;83.90;;;;;;5120856;27;20031;-56
2022/12/09 07:27:48;;;;;;;8.00;5.30;;;5.30;83.80;;;;;;5121269;27;20443;-58
2022/12/09 07:30:14;;;;;;;6.18;4.80;;;5.30;83.70;;;;;;5124343;27;20042;-54
2022/12/09 07:32:39;;;;;;;6.57;4.63;;;5.30;83.50;;;;;;5126430;27;20231;-55
2022/12/09 07:35:05;;;;;;;5.65;4.30;;;5.30;83.60;;;;;;5122385;27;20123;-57
2022/12/09 07:37:31;;;;;;;6.68;5.10;;;5.30;83.50;;;;;;5125662;27;20035;-58
2022/12/09 07:39:56;;;;;;;4.97;3.85;;;5.40;83.50;;;;;;5121147;27;20030;-56
2022/12/09 07:42:22;;;;;;;5.47;3.90;;;5.40;83.50;;;;;;5122484;27;20027;-57
2022/12/09 07:44:48;;;;;;;5.22;3.80;;;5.40;83.50;;;;;;5120480;27;20507;-53
2022/12/09 07:47:14;;;;;;;5.72;4.00;;;5.40;83.60;;;;;;5118407;27;20302;-58
2022/12/09 07:49:39;;;;;;;6.57;4.55;;;5.40;83.60;;;;;;5117861;27;20042;-52
2022/12/09 07:52:05;;;;;;;5.35;3.78;;;5.40;83.40;;;;;;5119273;27;20396;-58
2022/12/09 07:54:31;;;;;;;4.93;3.75;;;5.40;83.60;;;;;;5120928;27;20358;-59
2022/12/09 07:56:56;;;;;;;4.07;3.45;;;5.40;83.60;;;;;;5077651;27;21247;-57
2022/12/09 07:59:23;;;;;;;6.88;5.03;;;5.40;83.60;;;;;;5110128;27;20023;-56
2022/12/09 08:01:49;;;;;;;6.20;4.80;;;5.50;83.50;;;;;;5094686;27;20023;-55
2022/12/09 08:04:15;;;;;;;8.52;5.15;;;5.40;83.30;;;;;;5114555;27;20038;-55
2022/12/09 08:06:40;;;;;;;5.70;4.00;;;5.40;83.50;;;;;;5109867;27;20449;-52
2022/12/09 08:09:10;;;;;;;7.38;5.13;;;5.40;83.60;;;;;;5111834;27;20035;-56
2022/12/09 08:11:36;;;;;;;6.75;4.93;;;5.40;83.70;;;;;;5118801;27;20045;-54
2022/12/09 08:14:04;;;;;;;8.50;5.55;;;5.40;83.70;;;;;;5120590;27;20463;-55
2022/12/09 08:16:30;;;;;;;5.72;4.20;;;5.40;83.60;;;;;;5102035;27;20157;-56
2022/12/09 08:18:56;;;;;;;6.32;4.47;;;5.40;84.40;;;;;;5103024;27;20030;-63
2022/12/09 08:21:25;;;;;;;6.35;4.25;;;5.40;84.00;;;;;;5082407;27;20174;-62
2022/12/09 08:23:51;;;;;;;4.07;3.20;;;5.40;84.00;;;;;;5107069;27;20740;-51
2022/12/09 08:26:20;;;;;;;7.18;5.05;;;5.40;84.00;;;;;;5108642;27;20092;-55
2022/12/09 08:28:46;;;;;;;6.07;4.22;;;5.40;84.00;;;;;;5107877;27;20161;-55
2022/12/09 08:31:15;;;;;;;9.00;5.53;;;5.40;84.00;;;;;;5106268;27;20144;-52
2022/12/09 08:33:43;;;;;;;6.93;5.43;;;5.40;83.80;;;;;;5100668;27;20031;-58
2022/12/09 08:36:18;;;;;;;6.95;4.53;;;5.40;83.80;;;;;;5103799;27;20035;-58
2022/12/09 08:38:44;;;;;;;7.38;5.28;;;5.50;83.80;;;;;;5105178;27;20035;-57
2022/12/09 08:41:12;;;;;;;7.40;5.07;;;5.50;83.70;;;;;;5103780;27;20743;-54
2022/12/09 08:43:38;;;;;;;4.88;3.80;;;5.50;83.50;;;;;;5104773;27;20832;-56
2022/12/09 08:46:04;;;;;;;4.60;3.72;;;5.40;84.10;;;;;;5108377;27;20035;-56
2022/12/09 08:48:30;;;;;;;4.47;3.65;;;5.40;83.70;;;;;;5097241;27;20042;-57
2022/12/09 08:50:56;;;;;;;11.98;8.18;;;5.40;83.80;;;;;;5072004;27;20031;-57
2022/12/09 08:53:23;;;;;;;6.90;5.05;;;5.40;83.70;;;;;;5080677;27;20044;-52
2022/12/09 08:55:48;;;;;;;6.72;4.82;;;5.40;83.90;;;;;;5077117;27;20037;-56
2022/12/09 08:58:14;;;;;;;6.72;4.70;;;5.40;84.00;;;;;;5095175;27;20024;-55
2022/12/09 09:00:39;;;;;;;5.07;4.07;;;5.40;83.80;;;;;;5092493;27;20027;-57
2022/12/09 09:03:05;;;;;;;5.85;3.85;;;5.40;83.70;;;;;;5108496;27;20054;-56
2022/12/09 09:05:31;;;;;;;5.82;4.38;;;5.50;83.90;;;;;;5110521;27;20651;-55
2022/12/09 09:07:57;;;;;;;4.80;3.53;;;5.50;83.70;;;;;;5106837;27;20126;-52
2022/12/09 09:10:22;;;;;;;5.45;3.45;;;5.60;83.50;;;;;;5073111;27;20043;-53
2022/12/09 09:12:50;;;;;;;5.50;4.10;;;5.70;83.30;;;;;;5088515;27;20062;-52
2022/12/09 09:15:19;;;;;;;5.45;4.28;;;5.70;83.20;;;;;;5111150;27;20039;-55
2022/12/09 09:17:44;;;;;;;5.75;4.53;;;5.80;83.00;;;;;;5101809;27;20034;-57
2022/12/09 09:20:10;;;;;;;6.18;4.60;;;5.80;82.80;;;;;;5104764;27;20031;-55
2022/12/09 09:22:37;;;;;;;5.38;3.75;;;5.80;82.40;;;;;;5106912;27;20126;-56
2022/12/09 09:25:03;;;;;;;5.43;3.92;;;5.80;82.40;;;;;;5097601;27;20484;-56
2022/12/09 09:27:29;;;;;;;5.55;3.78;;;5.90;82.50;;;;;;5105868;27;20046;-58
2022/12/09 09:29:55;;;;;;;6.70;4.90;;;5.90;82.40;;;;;;5101184;27;20784;-57
2022/12/09 09:32:20;;;;;;;6.38;4.60;;;5.80;82.20;;;;;;5106118;27;20023;-55
2022/12/09 09:34:49;;;;;;;6.75;4.70;;;5.80;82.10;;;;;;5095767;27;20023;-57
2022/12/09 09:37:15;;;;;;;5.45;4.10;;;5.80;82.00;;;;;;5108370;27;20030;-57
2022/12/09 09:39:40;;;;;;;5.97;4.38;;;5.80;82.00;;;;;;5112726;27;20050;-58
2022/12/09 09:42:14;;;;;;;5.70;4.30;;;5.80;82.10;;;;;;5102240;27;20027;-55
2022/12/09 09:44:49;;;;;;;6.80;4.60;;;5.80;82.10;;;;;;5106150;27;20150;-58
2022/12/09 09:47:24;;;;;;;5.47;4.40;;;5.80;82.10;;;;;;5104277;27;20119;-57
2022/12/09 09:50:18;;;;;;;4.78;3.72;;;5.80;82.10;;;;;;5083376;27;20114;-57
2022/12/09 09:52:44;;;;;;;5.57;4.22;;;5.90;82.20;;;;;;5097272;27;20041;-59
2022/12/09 09:55:17;;;;;;;6.05;3.95;;;5.90;82.10;;;;;;5108122;27;20039;-57
2022/12/09 09:58:21;;;;;;;5.75;4.18;;;5.90;82.00;;;;;;5089570;27;20035;-58
2022/12/09 10:01:05;;;;;;;4.78;3.65;;;5.90;82.10;;;;;;5046639;27;20052;-58
2022/12/09 10:03:31;;;;;;;4.20;3.10;;;5.90;82.90;;;;;;5096871;27;20046;-55
2022/12/09 10:06:19;;;;;;;4.70;4.05;;;5.90;82.40;;;;;;5089218;28;20055;-57
2022/12/09 10:08:59;;;;;;;6.00;3.90;;;5.90;82.40;;;;;;5108973;27;20027;-58
2022/12/09 10:11:39;;;;;;;4.78;3.70;;;5.90;82.10;;;;;;5102708;27;20095;-58
2022/12/09 10:14:21;;;;;;;5.57;4.13;;;5.90;82.20;;;;;;5100206;27;20074;-58
2022/12/09 10:16:57;;;;;;;5.03;3.97;;;5.90;82.00;;;;;;5104682;27;20398;-56
2022/12/09 10:19:23;;;;;;;4.43;3.53;;;5.90;82.00;;;;;;5107864;27;20023;-55
2022/12/09 10:21:51;;;;;;;6.18;4.30;;;5.90;81.90;;;;;;5107822;27;20036;-57
2022/12/09 10:24:25;;;;;;;5.50;3.95;;;6.00;81.80;;;;;;5101247;27;20326;-57
2022/12/09 10:27:26;;;;;;;5.30;4.35;;;6.00;81.90;;;;;;5101194;27;20035;-58
2022/12/09 10:30:18;;;;;;;5.37;4.10;;;6.00;81.60;;;;;;5105598;27;20362;-59
2022/12/09 10:32:44;;;;;;;5.68;4.32;;;5.90;81.00;;;;;;5101440;27;20180;-56
2022/12/09 10:35:27;;;;;;;4.78;4.03;;;5.80;80.90;;;;;;5111209;27;20894;-57
2022/12/09 10:38:06;;;;;;;5.18;4.28;;;5.80;81.00;;;;;;5088578;27;20063;-57
2022/12/09 10:40:53;;;;;;;5.13;4.13;;;5.70;81.10;;;;;;5088311;27;20142;-56
2022/12/09 10:43:39;;;;;;;5.88;4.43;;;5.60;81.30;;;;;;5092221;27;20024;-58
2022/12/09 10:46:14;;;;;;;5.35;4.38;;;5.60;81.80;;;;;;5100857;27;20659;-59
2022/12/09 10:48:46;;;;;;;6.95;5.32;;;5.50;81.60;;;;;;5094674;27;20023;-60
2022/12/09 10:51:24;;;;;;;6.35;4.60;;;5.50;81.50;;;;;;5092303;27;20543;-58
2022/12/09 10:53:55;;;;;;;6.47;4.55;;;5.40;81.60;;;;;;5098393;27;20027;-59
2022/12/09 10:56:29;;;;;;;4.13;3.45;;;5.30;81.90;;;;;;5103999;27;20027;-59
2022/12/09 11:01:55;;;;;;;3.80;3.33;;;5.30;82.10;;;;;;5008731;28;20572;-59
2022/12/09 11:04:26;;;;;;;4.35;3.78;;;5.40;82.90;;;;;;5023718;28;20044;-59
2022/12/09 11:06:55;;;;;;;5.13;4.17;;;5.40;82.90;;;;;;5019049;28;20032;-58
2022/12/09 11:09:26;;;;;;;5.13;3.70;;;5.50;83.20;;;;;;5018608;28;20270;-56
2022/12/09 11:11:52;;;;;;;;;;;5.50;83.20;;;;;;5011980;28;20187;-55
2022/12/09 11:14:36;;;;;;;3.63;3.08;;;5.60;83.00;;;;;;5017505;28;19913;-56
2022/12/09 11:17:13;;;;;;;4.15;3.38;;;5.60;83.00;;;;;;5016673;28;20032;-57
2022/12/09 11:19:43;;;;;;;3.35;3.00;;;5.70;83.10;;;;;;5022486;28;20060;-55
2022/12/09 11:22:21;;;;;;;4.57;3.47;;;5.70;83.10;;;;;;5021592;28;20439;-58
2022/12/09 11:24:47;;;;;;;3.72;3.20;;;5.80;83.00;;;;;;5021489;28;20041;-54
2022/12/09 11:27:30;;;;;;;4.28;3.42;;;5.80;82.90;;;;;;5013022;28;20033;-57
2022/12/09 11:30:14;;;;;;;3.88;3.20;;;5.80;82.70;;;;;;5013681;28;20107;-57
2022/12/09 11:32:53;;;;;;;3.90;3.38;;;5.90;82.60;;;;;;5013437;28;20108;-57
2022/12/09 11:35:25;;;;;;;3.60;3.20;;;5.90;82.60;;;;;;5016557;28;20037;-57
2022/12/09 11:37:51;;;;;;;4.10;3.63;;;5.90;82.70;;;;;;5032251;28;20028;-57
2022/12/09 11:40:18;;;;;;;4.78;4.15;;;5.90;82.70;;;;;;5021049;28;20037;-57
2022/12/09 11:42:55;;;;;;;5.05;4.00;;;5.90;82.60;;;;;;5018125;28;20026;-58
2022/12/09 11:45:44;;;;;;;4.18;3.53;;;5.90;82.60;;;;;;5004315;28;21047;-57
2022/12/09 11:48:25;;;;;;;6.80;3.28;;;5.80;82.80;;;;;;5024026;28;20033;-57
2022/12/09 11:50:51;;;;;;;4.45;3.70;;;5.90;83.20;;;;;;5024626;28;20029;-56
2022/12/09 11:53:33;;;;;;;3.53;3.17;;;5.90;83.20;;;;;;5020785;28;20033;-55
2022/12/09 11:56:31;;;;;;;4.43;3.33;;;5.90;83.10;;;;;;5021200;28;20030;-56
2022/12/09 11:59:22;;;;;;;4.85;3.30;;;5.90;82.90;;;;;;5005553;28;20056;-55
2022/12/09 12:02:00;;;;;;;4.55;3.25;;;6.00;82.70;;;;;;5025319;28;21039;-55
2022/12/09 12:04:54;;;;;;;4.50;3.22;;;6.00;82.60;;;;;;5021952;28;20376;-54
2022/12/09 12:07:43;;;;;;;5.00;3.28;;;6.10;82.60;;;;;;5022740;28;20029;-56
2022/12/09 12:10:47;;;;;;;5.05;3.42;;;6.10;82.30;;;;;;5018783;28;20121;-56
2022/12/09 12:13:26;;;;;;;5.75;4.53;;;6.10;82.20;;;;;;5005998;28;20673;-57
2022/12/09 12:15:59;;;;;;;3.88;3.08;;;6.20;82.10;;;;;;5006825;28;20038;-57
2022/12/09 12:18:30;;;;;;;3.53;2.92;;;6.20;82.00;;;;;;5001920;28;20034;-58
2022/12/09 12:21:31;;;;;;;4.22;3.58;;;6.20;82.00;;;;;;5020777;28;20040;-57
2022/12/09 12:24:09;;;;;;;3.60;3.20;;;6.20;81.90;;;;;;5006643;28;20041;-58
2022/12/09 12:26:57;;;;;;;4.78;3.78;;;6.20;81.80;;;;;;5010016;28;20042;-59
2022/12/09 12:29:29;;;;;;;5.28;3.90;;;6.20;81.70;;;;;;4988364;28;20026;-57
2022/12/09 12:32:30;;;;;;;5.28;4.10;;;6.30;81.60;;;;;;5007467;28;20038;-56
2022/12/09 12:35:20;;;;;;;4.47;3.70;;;6.30;81.40;;;;;;5007343;28;20100;-57
2022/12/09 12:38:09;;;;;;;4.00;3.40;;;6.30;81.40;;;;;;5004932;28;20030;-51
2022/12/09 12:41:12;;;;;;;3.97;3.30;;;6.20;81.50;;;;;;4996696;28;20046;-57
2022/12/09 12:47:31;;;;;;;3.70;3.30;;;6.20;81.40;;;;;;4992021;28;21251;-55
2022/12/09 12:50:16;;;;;;;5.03;3.70;;;6.20;81.50;;;;;;5003792;28;20274;-55
2022/12/09 12:56:10;;;;;;;4.50;2.97;;;6.20;80.80;;;;;;5037449;28;21080;-52
2022/12/09 12:58:56;;;;;;;5.03;3.42;;;6.20;81.20;;;;;;5039174;28;20037;-56
2022/12/09 13:01:53;;;;;;;3.95;3.20;;;6.20;81.40;;;;;;5030275;28;20051;-55
2022/12/09 13:04:48;;;;;;;3.45;2.67;;;6.20;81.30;;;;;;5038904;28;20048;-55
2022/12/09 13:07:32;;;;;;;3.25;2.95;;;6.20;81.40;;;;;;5043286;28;20125;-56
2022/12/09 13:10:12;;;;;;;3.55;3.25;;;6.20;81.50;;;;;;5039030;28;20040;-56
2022/12/09 13:12:54;;;;;;;4.53;3.58;;;6.20;81.40;;;;;;5034473;28;20040;-58
2022/12/09 13:15:35;;;;;;;4.95;3.47;;;6.30;81.50;;;;;;5034100;28;20037;-51
2022/12/09 13:18:30;;;;;;;5.63;3.22;;;6.30;81.30;;;;;;5042313;28;20128;-55
2022/12/09 13:21:02;;;;;;;4.60;3.38;;;6.30;81.20;;;;;;5048838;28;20044;-57
2022/12/09 13:23:42;;;;;;;3.78;3.03;;;6.30;81.10;;;;;;5045783;28;20040;-55
2022/12/09 13:26:29;;;;;;;3.75;3.30;;;6.30;81.00;;;;;;5045367;28;20060;-52
2022/12/09 13:29:11;;;;;;;3.88;3.35;;;6.30;81.10;;;;;;5044033;28;20040;-56